createdAt,value
2019-05-28T00:00:06.959Z,1001.50
2019-05-28T00:01:06.946Z,1001.46
2019-05-28T00:02:06.935Z,1001.46
2019-05-28T00:03:06.926Z,1001.43
2019-05-28T00:04:06.920Z,1001.42
2019-05-28T00:05:06.903Z,1001.39
2019-05-28T00:06:06.899Z,1001.38
2019-05-28T00:07:06.879Z,1001.42
2019-05-28T00:08:06.879Z,1001.40
2019-05-28T00:09:06.861Z,1001.37
2019-05-28T00:10:07.283Z,1001.38
2019-05-28T00:11:06.834Z,1001.41
2019-05-28T00:12:06.824Z,1001.36
2019-05-28T00:13:06.813Z,1001.37
2019-05-28T00:14:06.806Z,1001.35
2019-05-28T00:15:06.792Z,1001.32
2019-05-28T00:16:09.888Z,1001.27
2019-05-28T00:17:06.772Z,1001.31
2019-05-28T00:18:06.808Z,1001.32
2019-05-28T00:19:06.746Z,1001.30
2019-05-28T00:20:06.736Z,1001.30
2019-05-28T00:21:06.726Z,1001.26
2019-05-28T00:22:06.720Z,1001.23
2019-05-28T00:23:06.705Z,1001.27
2019-05-28T00:24:06.690Z,1001.20
2019-05-28T00:25:06.677Z,1001.15
2019-05-28T00:26:06.667Z,1001.16
2019-05-28T00:27:06.657Z,1001.15
2019-05-28T00:28:06.650Z,1001.16
2019-05-28T00:29:06.632Z,1001.15
2019-05-28T00:30:19.070Z,1001.09
2019-05-28T00:31:07.611Z,1001.09
2019-05-28T00:32:06.600Z,1001.11
2019-05-28T00:33:06.588Z,1001.10
2019-05-28T00:34:06.584Z,1001.11
2019-05-28T00:35:06.568Z,1001.07
2019-05-28T00:36:06.568Z,1001.07
2019-05-28T00:37:06.546Z,1001.09
2019-05-28T00:38:06.532Z,1001.07
2019-05-28T00:39:06.528Z,1001.10
2019-05-28T00:40:06.517Z,1001.08
2019-05-28T00:41:06.500Z,1001.08
2019-05-28T00:42:06.489Z,1001.08
2019-05-28T00:43:06.477Z,1001.10
2019-05-28T00:44:06.513Z,1001.12
2019-05-28T00:45:06.454Z,1001.07
2019-05-28T00:46:06.449Z,1001.10
2019-05-28T00:47:06.435Z,1001.12
2019-05-28T00:48:06.420Z,1001.11
2019-05-28T00:49:06.409Z,1001.12
2019-05-28T00:50:06.399Z,1001.11
2019-05-28T00:51:06.387Z,1001.11
2019-05-28T00:52:06.395Z,1001.09
2019-05-28T00:53:06.364Z,1001.11
2019-05-28T00:54:06.355Z,1001.12
2019-05-28T00:55:06.342Z,1001.12
2019-05-28T00:56:06.332Z,1001.12
2019-05-28T00:57:06.319Z,1001.10
2019-05-28T00:58:06.317Z,1001.09
2019-05-28T00:59:06.306Z,1001.09
2019-05-28T01:00:06.286Z,1001.07
2019-05-28T01:01:06.276Z,1001.06
2019-05-28T01:02:06.266Z,1001.06
2019-05-28T01:03:06.254Z,1001.08
2019-05-28T01:04:06.249Z,1001.06
2019-05-28T01:05:06.250Z,1001.01
2019-05-28T01:06:06.218Z,1001.05
2019-05-28T01:07:06.214Z,1001.03
2019-05-28T01:08:06.196Z,1001.02
2019-05-28T01:09:06.187Z,1001.01
2019-05-28T01:10:06.187Z,1001.03
2019-05-28T01:11:06.167Z,1001.00
2019-05-28T01:12:06.153Z,1000.97
2019-05-28T01:13:06.143Z,1000.97
2019-05-28T01:14:06.132Z,1000.97
2019-05-28T01:15:06.121Z,1000.96
2019-05-28T01:16:06.128Z,1000.95
2019-05-28T01:17:06.096Z,1000.98
2019-05-28T01:18:06.087Z,1000.98
2019-05-28T01:19:06.073Z,1000.95
2019-05-28T01:20:06.062Z,1000.93
2019-05-28T01:21:06.051Z,1000.90
2019-05-28T01:22:06.047Z,1000.90
2019-05-28T01:23:06.030Z,1000.90
2019-05-28T01:24:06.039Z,1000.91
2019-05-28T01:25:06.011Z,1000.91
2019-05-28T01:26:05.998Z,1000.91
2019-05-28T01:27:05.989Z,1000.94
2019-05-28T01:28:05.984Z,1000.92
2019-05-28T01:29:05.962Z,1000.90
2019-05-28T01:30:05.989Z,1000.91
2019-05-28T01:31:05.943Z,1000.92
2019-05-28T01:32:05.929Z,1000.89
2019-05-28T01:33:05.918Z,1000.94
2019-05-28T01:34:05.913Z,1000.90
2019-05-28T01:35:05.896Z,1000.92
2019-05-28T01:36:05.885Z,1000.92
2019-05-28T01:37:05.874Z,1000.92
2019-05-28T01:38:08.510Z,1000.94
2019-05-28T01:39:05.850Z,1000.91
2019-05-28T01:40:05.847Z,1000.94
2019-05-28T01:41:05.828Z,1000.94
2019-05-28T01:42:05.817Z,1000.97
2019-05-28T01:43:05.806Z,1000.93
2019-05-28T01:44:05.795Z,1000.96
2019-05-28T01:45:05.784Z,1000.98
2019-05-28T01:46:05.785Z,1000.98
2019-05-28T01:47:05.764Z,1001.00
2019-05-28T01:48:05.750Z,1001.00
2019-05-28T01:49:05.740Z,1000.99
2019-05-28T01:50:05.726Z,1001.03
2019-05-28T01:51:05.718Z,1001.02
2019-05-28T01:52:05.730Z,1001.05
2019-05-28T01:53:05.694Z,1001.06
2019-05-28T01:54:05.682Z,1001.05
2019-05-28T01:55:05.671Z,1001.03
2019-05-28T01:56:05.661Z,1001.05
2019-05-28T01:57:05.650Z,1001.03
2019-05-28T01:58:05.648Z,1001.01
2019-05-28T01:59:05.628Z,1001.03
2019-05-28T02:00:05.615Z,1001.02
2019-05-28T02:01:12.782Z,1001.01
2019-05-28T02:02:06.592Z,1000.98
2019-05-28T02:03:05.582Z,1001.01
2019-05-28T02:04:05.577Z,1001.00
2019-05-28T02:05:05.561Z,1000.99
2019-05-28T02:06:05.549Z,1001.00
2019-05-28T02:07:05.540Z,1000.99
2019-05-28T02:08:05.533Z,1001.02
2019-05-28T02:09:05.514Z,1001.00
2019-05-28T02:10:05.531Z,1000.97
2019-05-28T02:11:05.491Z,1000.99
2019-05-28T02:12:05.482Z,1000.99
2019-05-28T02:13:05.471Z,1000.99
2019-05-28T02:14:05.458Z,1000.98
2019-05-28T02:15:05.450Z,1000.94
2019-05-28T02:16:05.457Z,1001.00
2019-05-28T02:17:05.426Z,1000.99
2019-05-28T02:18:05.414Z,1000.97
2019-05-28T02:19:05.405Z,1000.93
2019-05-28T02:20:05.405Z,1000.96
2019-05-28T02:21:05.380Z,1000.92
2019-05-28T02:22:05.377Z,1000.92
2019-05-28T02:23:05.360Z,1000.95
2019-05-28T02:24:05.346Z,1000.91
2019-05-28T02:25:05.339Z,1000.95
2019-05-28T02:26:05.325Z,1000.96
2019-05-28T02:27:05.312Z,1000.95
2019-05-28T02:28:05.311Z,1000.97
2019-05-28T02:29:05.293Z,1000.98
2019-05-28T02:30:05.281Z,1000.98
2019-05-28T02:31:05.271Z,1000.98
2019-05-28T02:32:05.259Z,1000.95
2019-05-28T02:33:05.246Z,1000.98
2019-05-28T02:34:05.243Z,1000.99
2019-05-28T02:35:05.224Z,1001.02
2019-05-28T02:36:05.212Z,1001.03
2019-05-28T02:37:05.202Z,1000.98
2019-05-28T02:38:05.193Z,1001.01
2019-05-28T02:39:05.179Z,1001.02
2019-05-28T02:40:05.175Z,1001.03
2019-05-28T02:41:05.159Z,1000.99
2019-05-28T02:42:05.146Z,1000.98
2019-05-28T02:43:05.135Z,1001.04
2019-05-28T02:44:05.123Z,1001.02
2019-05-28T02:45:05.112Z,1000.99
2019-05-28T02:46:05.107Z,1001.06
2019-05-28T02:47:05.089Z,1001.00
2019-05-28T02:48:05.080Z,1001.02
2019-05-28T02:49:05.069Z,1001.00
2019-05-28T02:50:05.059Z,1001.01
2019-05-28T02:51:05.049Z,1001.01
2019-05-28T02:52:05.068Z,1001.04
2019-05-28T02:53:05.023Z,1001.01
2019-05-28T02:54:05.011Z,1000.99
2019-05-28T02:55:05.004Z,1000.98
2019-05-28T02:56:04.992Z,1001.00
2019-05-28T02:57:04.979Z,1001.01
2019-05-28T02:58:04.974Z,1001.03
2019-05-28T02:59:04.956Z,1001.03
2019-05-28T03:00:04.957Z,1001.02
2019-05-28T03:01:04.934Z,1001.00
2019-05-28T03:02:04.924Z,1001.01
2019-05-28T03:03:04.915Z,1001.01
2019-05-28T03:04:04.909Z,1001.02
2019-05-28T03:05:04.889Z,1000.97
2019-05-28T03:06:04.878Z,1001.05
2019-05-28T03:07:04.866Z,1000.97
2019-05-28T03:08:04.855Z,1001.00
2019-05-28T03:09:04.845Z,1001.06
2019-05-28T03:10:04.854Z,1001.03
2019-05-28T03:11:04.953Z,1001.03
2019-05-28T03:12:04.812Z,1001.06
2019-05-28T03:13:04.813Z,1001.02
2019-05-28T03:14:04.790Z,1001.02
2019-05-28T03:15:04.776Z,1001.01
2019-05-28T03:16:04.785Z,1000.97
2019-05-28T03:17:04.757Z,1001.00
2019-05-28T03:18:04.742Z,1001.01
2019-05-28T03:19:04.735Z,1001.01
2019-05-28T03:20:04.723Z,1001.02
2019-05-28T03:21:04.709Z,1000.99
2019-05-28T03:22:04.726Z,1001.01
2019-05-28T03:23:04.689Z,1001.01
2019-05-28T03:24:04.675Z,1000.99
2019-05-28T03:25:04.664Z,1001.01
2019-05-28T03:26:04.666Z,1001.03
2019-05-28T03:27:04.644Z,1001.06
2019-05-28T03:28:04.638Z,1001.00
2019-05-28T03:29:04.621Z,1001.05
2019-05-28T03:30:04.617Z,1001.01
2019-05-28T03:31:04.599Z,1000.99
2019-05-28T03:32:08.621Z,1000.99
2019-05-28T03:33:04.677Z,1000.96
2019-05-28T03:34:04.590Z,1000.97
2019-05-28T03:35:04.557Z,1001.02
2019-05-28T03:36:04.546Z,1001.05
2019-05-28T03:37:04.535Z,1001.03
2019-05-28T03:38:04.522Z,1001.02
2019-05-28T03:39:04.511Z,1001.09
2019-05-28T03:40:04.606Z,1001.04
2019-05-28T03:41:04.522Z,1001.07
2019-05-28T03:42:04.492Z,1001.05
2019-05-28T03:43:04.481Z,1001.02
2019-05-28T03:44:04.458Z,1001.02
2019-05-28T03:45:04.444Z,1001.06
2019-05-28T03:46:04.463Z,1001.00
2019-05-28T03:47:04.422Z,1000.99
2019-05-28T03:48:04.411Z,1000.99
2019-05-28T03:49:04.399Z,1000.99
2019-05-28T03:50:04.389Z,1000.99
2019-05-28T03:51:04.383Z,1000.99
2019-05-28T03:52:04.395Z,1000.97
2019-05-28T03:53:04.355Z,1001.00
2019-05-28T03:54:04.346Z,1000.99
2019-05-28T03:55:04.332Z,1001.01
2019-05-28T03:56:04.321Z,1001.01
2019-05-28T03:57:04.311Z,1001.02
2019-05-28T03:58:04.323Z,1001.02
2019-05-28T03:59:04.288Z,1001.01
2019-05-28T04:00:04.280Z,1000.99
2019-05-28T04:01:04.263Z,1000.97
2019-05-28T04:02:04.251Z,1000.98
2019-05-28T04:03:04.239Z,1000.97
2019-05-28T04:04:04.257Z,1001.00
2019-05-28T04:05:04.229Z,1001.04
2019-05-28T04:06:04.208Z,1000.99
2019-05-28T04:07:04.197Z,1000.98
2019-05-28T04:08:04.366Z,1000.99
2019-05-28T04:09:04.173Z,1000.96
2019-05-28T04:10:04.169Z,1000.97
2019-05-28T04:11:04.150Z,1000.97
2019-05-28T04:12:04.140Z,1001.01
2019-05-28T04:13:04.128Z,1001.05
2019-05-28T04:14:04.116Z,1001.02
2019-05-28T04:15:04.106Z,1001.01
2019-05-28T04:16:04.101Z,1000.99
2019-05-28T04:17:04.082Z,1001.00
2019-05-28T04:18:04.079Z,1001.05
2019-05-28T04:19:04.060Z,1001.05
2019-05-28T04:20:04.049Z,1000.99
2019-05-28T04:21:04.038Z,1000.99
2019-05-28T04:22:04.033Z,1001.01
2019-05-28T04:23:04.016Z,1000.99
2019-05-28T04:24:04.005Z,1001.03
2019-05-28T04:25:04.012Z,1001.05
2019-05-28T04:26:03.984Z,1001.10
2019-05-28T04:27:03.976Z,1001.10
2019-05-28T04:28:03.979Z,1001.07
2019-05-28T04:29:03.952Z,1001.08
2019-05-28T04:30:03.941Z,1001.08
2019-05-28T04:31:04.013Z,1001.10
2019-05-28T04:32:03.915Z,1001.12
2019-05-28T04:33:03.904Z,1001.09
2019-05-28T04:34:03.925Z,1001.03
2019-05-28T04:35:03.881Z,1001.04
2019-05-28T04:36:03.869Z,1001.07
2019-05-28T04:37:03.861Z,1001.08
2019-05-28T04:38:03.847Z,1001.03
2019-05-28T04:39:03.837Z,1001.06
2019-05-28T04:40:03.866Z,1001.07
2019-05-28T04:41:03.813Z,1001.07
2019-05-28T04:42:03.803Z,1001.07
2019-05-28T04:43:03.827Z,1001.03
2019-05-28T04:44:03.782Z,1001.08
2019-05-28T04:45:03.770Z,1001.11
2019-05-28T04:46:03.764Z,1001.06
2019-05-28T04:47:03.747Z,1001.13
2019-05-28T04:48:03.738Z,1001.06
2019-05-28T04:49:03.731Z,1001.07
2019-05-28T04:50:03.714Z,1001.04
2019-05-28T04:51:03.702Z,1001.06
2019-05-28T04:52:03.756Z,1001.04
2019-05-28T04:53:03.680Z,1001.02
2019-05-28T04:54:03.669Z,1001.04
2019-05-28T04:55:03.658Z,1001.04
2019-05-28T04:56:03.653Z,1001.09
2019-05-28T04:57:03.637Z,1001.02
2019-05-28T04:58:03.643Z,1001.03
2019-05-28T04:59:04.062Z,1001.04
2019-05-28T05:00:03.602Z,1001.04
2019-05-28T05:01:03.652Z,1001.04
2019-05-28T05:02:03.590Z,1001.03
2019-05-28T05:03:03.571Z,1001.03
2019-05-28T05:04:03.562Z,1001.04
2019-05-28T05:05:03.546Z,1001.05
2019-05-28T05:06:03.533Z,1001.02
2019-05-28T05:07:03.527Z,1001.07
2019-05-28T05:08:03.511Z,1001.06
2019-05-28T05:09:03.499Z,1001.05
2019-05-28T05:10:03.495Z,1001.02
2019-05-28T05:11:03.477Z,1001.07
2019-05-28T05:12:03.470Z,1001.06
2019-05-28T05:13:03.455Z,1001.07
2019-05-28T05:14:03.444Z,1001.12
2019-05-28T05:15:03.463Z,1001.13
2019-05-28T05:16:03.428Z,1001.13
2019-05-28T05:17:03.410Z,1001.14
2019-05-28T05:18:03.399Z,1001.14
2019-05-28T05:19:03.390Z,1001.13
2019-05-28T05:20:03.378Z,1001.11
2019-05-28T05:21:03.377Z,1001.13
2019-05-28T05:22:03.363Z,1001.08
2019-05-28T05:23:03.349Z,1001.12
2019-05-28T05:24:03.339Z,1001.07
2019-05-28T05:25:03.323Z,1001.06
2019-05-28T05:26:03.312Z,1001.05
2019-05-28T05:27:03.299Z,1001.04
2019-05-28T05:28:03.299Z,1001.06
2019-05-28T05:29:03.292Z,1001.10
2019-05-28T05:30:03.290Z,1001.08
2019-05-28T05:31:03.256Z,1001.09
2019-05-28T05:32:03.242Z,1001.13
2019-05-28T05:33:19.255Z,1001.14
2019-05-28T05:34:04.225Z,1001.12
2019-05-28T05:35:03.210Z,1001.09
2019-05-28T05:36:03.198Z,1001.10
2019-05-28T05:37:03.190Z,1001.09
2019-05-28T05:38:03.174Z,1001.13
2019-05-28T05:39:03.167Z,1001.11
2019-05-28T05:40:03.160Z,1001.13
2019-05-28T05:41:03.141Z,1001.14
2019-05-28T05:42:03.130Z,1001.15
2019-05-28T05:43:03.121Z,1001.17
2019-05-28T05:44:03.108Z,1001.19
2019-05-28T05:45:03.097Z,1001.16
2019-05-28T05:46:03.106Z,1001.22
2019-05-28T05:47:03.084Z,1001.19
2019-05-28T05:48:03.065Z,1001.20
2019-05-28T05:49:03.052Z,1001.18
2019-05-28T05:50:03.043Z,1001.17
2019-05-28T05:51:03.052Z,1001.15
2019-05-28T05:52:03.027Z,1001.20
2019-05-28T05:53:03.013Z,1001.20
2019-05-28T05:54:02.998Z,1001.16
2019-05-28T05:55:02.985Z,1001.23
2019-05-28T05:56:02.974Z,1001.26
2019-05-28T05:57:02.965Z,1001.24
2019-05-28T05:58:02.958Z,1001.26
2019-05-28T05:59:02.942Z,1001.29
2019-05-28T06:00:02.935Z,1001.29
2019-05-28T06:01:02.918Z,1001.25
2019-05-28T06:02:02.907Z,1001.25
2019-05-28T06:03:02.900Z,1001.29
2019-05-28T06:04:02.892Z,1001.25
2019-05-28T06:05:02.876Z,1001.23
2019-05-28T06:06:02.863Z,1001.28
2019-05-28T06:07:02.851Z,1001.25
2019-05-28T06:08:02.862Z,1001.28
2019-05-28T06:09:02.827Z,1001.29
2019-05-28T06:10:02.860Z,1001.31
2019-05-28T06:11:02.809Z,1001.30
2019-05-28T06:12:02.797Z,1001.35
2019-05-28T06:13:02.790Z,1001.34
2019-05-28T06:14:02.774Z,1001.35
2019-05-28T06:15:02.774Z,1001.34
2019-05-28T06:16:02.765Z,1001.36
2019-05-28T06:17:02.742Z,1001.28
2019-05-28T06:18:02.895Z,1001.34
2019-05-28T06:19:02.780Z,1001.36
2019-05-28T06:20:02.708Z,1001.35
2019-05-28T06:21:12.005Z,1001.31
2019-05-28T06:22:03.691Z,1001.29
2019-05-28T06:23:02.672Z,1001.33
2019-05-28T06:24:02.665Z,1001.33
2019-05-28T06:25:02.653Z,1001.29
2019-05-28T06:26:02.638Z,1001.35
2019-05-28T06:27:02.630Z,1001.30
2019-05-28T06:28:02.622Z,1001.30
2019-05-28T06:29:02.609Z,1001.31
2019-05-28T06:30:02.593Z,1001.30
2019-05-28T06:31:02.583Z,1001.29
2019-05-28T06:32:02.572Z,1001.31
2019-05-28T06:33:02.561Z,1001.33
2019-05-28T06:34:02.595Z,1001.31
2019-05-28T06:35:02.538Z,1001.30
2019-05-28T06:36:02.527Z,1001.35
2019-05-28T06:37:02.516Z,1001.34
2019-05-28T06:38:02.505Z,1001.32
2019-05-28T06:39:02.496Z,1001.32
2019-05-28T06:40:02.488Z,1001.31
2019-05-28T06:41:02.472Z,1001.30
2019-05-28T06:42:02.461Z,1001.34
2019-05-28T06:43:02.450Z,1001.32
2019-05-28T06:44:02.436Z,1001.33
2019-05-28T06:45:02.429Z,1001.28
2019-05-28T06:46:02.421Z,1001.33
2019-05-28T06:47:02.405Z,1001.31
2019-05-28T06:48:02.392Z,1001.29
2019-05-28T06:49:02.382Z,1001.29
2019-05-28T06:50:02.372Z,1001.31
2019-05-28T06:51:02.358Z,1001.37
2019-05-28T06:52:02.358Z,1001.33
2019-05-28T06:53:02.341Z,1001.34
2019-05-28T06:54:02.328Z,1001.31
2019-05-28T06:55:02.382Z,1001.36
2019-05-28T06:56:02.430Z,1001.32
2019-05-28T06:57:02.293Z,1001.32
2019-05-28T06:58:02.292Z,1001.36
2019-05-28T06:59:02.272Z,1001.38
2019-05-28T07:00:02.260Z,1001.38
2019-05-28T07:01:02.750Z,1001.39
2019-05-28T07:02:02.240Z,1001.37
2019-05-28T07:03:02.233Z,1001.38
2019-05-28T07:04:13.542Z,1001.37
2019-05-28T07:05:03.201Z,1001.40
2019-05-28T07:06:07.284Z,1001.43
2019-05-28T07:07:03.179Z,1001.41
2019-05-28T07:08:02.192Z,1001.46
2019-05-28T07:09:02.159Z,1001.41
2019-05-28T07:10:02.179Z,1001.43
2019-05-28T07:11:02.152Z,1001.47
2019-05-28T07:12:02.129Z,1001.48
2019-05-28T07:13:02.118Z,1001.50
2019-05-28T07:14:02.104Z,1001.49
2019-05-28T07:15:02.206Z,1001.47
2019-05-28T07:16:02.111Z,1001.51
2019-05-28T07:17:02.069Z,1001.52
2019-05-28T07:18:02.064Z,1001.51
2019-05-28T07:19:02.050Z,1001.53
2019-05-28T07:20:02.036Z,1001.54
2019-05-28T07:21:02.024Z,1001.52
2019-05-28T07:22:02.041Z,1001.50
2019-05-28T07:23:02.004Z,1001.59
2019-05-28T07:24:05.036Z,1001.52
2019-05-28T07:25:01.987Z,1001.53
2019-05-28T07:26:01.970Z,1001.54
2019-05-28T07:27:01.975Z,1001.50
2019-05-28T07:28:11.027Z,1001.52
2019-05-28T07:29:02.934Z,1001.57
2019-05-28T07:30:01.961Z,1001.53
2019-05-28T07:31:01.917Z,1001.56
2019-05-28T07:32:01.903Z,1001.59
2019-05-28T07:33:01.915Z,1001.59
2019-05-28T07:34:01.909Z,1001.64
2019-05-28T07:35:01.870Z,1001.63
2019-05-28T07:36:01.862Z,1001.61
2019-05-28T07:37:01.847Z,1001.63
2019-05-28T07:38:01.853Z,1001.63
2019-05-28T07:39:01.837Z,1001.68
2019-05-28T07:40:01.843Z,1001.64
2019-05-28T07:41:01.836Z,1001.67
2019-05-28T07:42:01.839Z,1001.68
2019-05-28T07:43:01.778Z,1001.66
2019-05-28T07:44:01.768Z,1001.71
2019-05-28T07:45:01.841Z,1001.70
2019-05-28T07:46:01.754Z,1001.71
2019-05-28T07:47:01.732Z,1001.73
2019-05-28T07:48:01.726Z,1001.73
2019-05-28T07:49:01.712Z,1001.72
2019-05-28T07:50:01.710Z,1001.75
2019-05-28T07:51:01.689Z,1001.73
2019-05-28T07:52:01.685Z,1001.75
2019-05-28T07:53:01.667Z,1001.72
2019-05-28T07:54:01.688Z,1001.76
2019-05-28T07:55:01.644Z,1001.77
2019-05-28T07:56:01.639Z,1001.79
2019-05-28T07:57:01.634Z,1001.76
2019-05-28T07:58:01.697Z,1001.79
2019-05-28T07:59:01.601Z,1001.80
2019-05-28T08:00:05.336Z,1001.79
2019-05-28T08:01:01.577Z,1001.77
2019-05-28T08:02:01.567Z,1001.77
2019-05-28T08:03:01.556Z,1001.78
2019-05-28T08:04:01.600Z,1001.81
2019-05-28T08:05:01.539Z,1001.76
2019-05-28T08:06:01.523Z,1001.78
2019-05-28T08:07:01.521Z,1001.77
2019-05-28T08:08:01.499Z,1001.77
2019-05-28T08:09:01.512Z,1001.74
2019-05-28T08:10:01.510Z,1001.73
2019-05-28T08:11:01.588Z,1001.80
2019-05-28T08:12:01.456Z,1001.77
2019-05-28T08:13:01.444Z,1001.80
2019-05-28T08:14:01.432Z,1001.84
2019-05-28T08:15:01.423Z,1001.81
2019-05-28T08:16:17.443Z,1001.86
2019-05-28T08:17:02.407Z,1001.91
2019-05-28T08:18:01.389Z,1001.83
2019-05-28T08:19:01.377Z,1001.81
2019-05-28T08:20:01.380Z,1001.83
2019-05-28T08:21:01.353Z,1001.80
2019-05-28T08:22:01.390Z,1001.77
2019-05-28T08:23:01.338Z,1001.82
2019-05-28T08:24:01.320Z,1001.79
2019-05-28T08:25:01.312Z,1001.77
2019-05-28T08:26:02.102Z,1001.79
2019-05-28T08:27:01.289Z,1001.75
2019-05-28T08:28:18.442Z,1001.77
2019-05-28T08:29:02.264Z,1001.75
2019-05-28T08:30:01.256Z,1001.75
2019-05-28T08:31:14.988Z,1001.74
2019-05-28T08:32:02.230Z,1001.78
2019-05-28T08:33:01.223Z,1001.80
2019-05-28T08:34:02.030Z,1001.81
2019-05-28T08:35:05.311Z,1001.77
2019-05-28T08:36:01.189Z,1001.70
2019-05-28T08:37:05.811Z,1001.76
2019-05-28T08:38:02.163Z,1001.76
2019-05-28T08:39:01.154Z,1001.79
2019-05-28T08:40:01.152Z,1001.80
2019-05-28T08:41:01.132Z,1001.78
2019-05-28T08:42:01.122Z,1001.78
2019-05-28T08:43:01.113Z,1001.77
2019-05-28T08:44:01.099Z,1001.83
2019-05-28T08:45:01.086Z,1001.80
2019-05-28T08:46:01.086Z,1001.83
2019-05-28T08:47:01.067Z,1001.78
2019-05-28T08:48:01.054Z,1001.80
2019-05-28T08:49:01.043Z,1001.79
2019-05-28T08:50:01.029Z,1001.81
2019-05-28T08:51:01.020Z,1001.83
2019-05-28T08:52:01.017Z,1001.80
2019-05-28T08:53:00.997Z,1001.76
2019-05-28T08:54:00.985Z,1001.75
2019-05-28T08:55:00.975Z,1001.76
2019-05-28T08:56:00.962Z,1001.71
2019-05-28T08:57:00.955Z,1001.79
2019-05-28T08:58:02.037Z,1001.76
2019-05-28T08:59:00.932Z,1001.78
2019-05-28T09:00:00.922Z,1001.80
2019-05-28T09:01:00.910Z,1001.85
2019-05-28T09:02:00.898Z,1001.83
2019-05-28T09:03:05.037Z,1001.85
2019-05-28T09:04:00.882Z,1001.88
2019-05-28T09:05:00.863Z,1001.84
2019-05-28T09:06:00.852Z,1001.84
2019-05-28T09:07:00.840Z,1001.85
2019-05-28T09:08:00.846Z,1001.85
2019-05-28T09:09:00.819Z,1001.87
2019-05-28T09:10:01.355Z,1001.87
2019-05-28T09:11:00.814Z,1001.86
2019-05-28T09:12:00.784Z,1001.90
2019-05-28T09:13:00.773Z,1001.90
2019-05-28T09:14:00.763Z,1001.90
2019-05-28T09:15:00.757Z,1001.87
2019-05-28T09:16:00.770Z,1001.89
2019-05-28T09:17:00.738Z,1001.84
2019-05-28T09:18:00.721Z,1001.88
2019-05-28T09:19:00.709Z,1001.87
2019-05-28T09:20:00.697Z,1001.93
2019-05-28T09:21:00.751Z,1001.88
2019-05-28T09:22:00.684Z,1001.89
2019-05-28T09:23:00.662Z,1001.92
2019-05-28T09:24:00.651Z,1001.94
2019-05-28T09:25:01.269Z,1002.01
2019-05-28T09:26:00.628Z,1002.00
2019-05-28T09:27:00.622Z,1001.99
2019-05-28T09:28:00.676Z,1002.04
2019-05-28T09:29:00.611Z,1001.99
2019-05-28T09:30:00.584Z,1002.02
2019-05-28T09:31:00.576Z,1001.98
2019-05-28T09:32:00.561Z,1002.04
2019-05-28T09:33:00.558Z,1002.03
2019-05-28T09:34:00.573Z,1002.01
2019-05-28T09:35:02.733Z,1002.05
2019-05-28T09:36:08.163Z,1002.03
2019-05-28T09:37:01.504Z,1002.05
2019-05-28T09:38:00.501Z,1002.05
2019-05-28T09:39:00.487Z,1002.03
2019-05-28T09:40:00.502Z,1002.04
2019-05-28T09:41:00.460Z,1002.03
2019-05-28T09:42:00.452Z,1002.02
2019-05-28T09:43:00.441Z,1002.06
2019-05-28T09:44:00.427Z,1002.04
2019-05-28T09:45:00.421Z,1002.05
2019-05-28T09:46:00.414Z,1002.01
2019-05-28T09:47:00.401Z,1002.03
2019-05-28T09:48:00.383Z,1002.04
2019-05-28T09:49:00.371Z,1002.03
2019-05-28T09:50:00.474Z,1002.03
2019-05-28T09:51:00.361Z,1002.02
2019-05-28T09:52:00.373Z,1002.01
2019-05-28T09:53:00.330Z,1002.05
2019-05-28T09:54:00.320Z,1002.07
2019-05-28T09:55:00.307Z,1002.05
2019-05-28T09:56:00.294Z,1002.06
2019-05-28T09:57:00.282Z,1002.06
2019-05-28T09:58:00.280Z,1002.06
2019-05-28T09:59:00.261Z,1002.06
2019-05-28T10:00:00.268Z,1002.06
2019-05-28T10:01:00.240Z,1002.08
2019-05-28T10:02:00.226Z,1002.07
2019-05-28T10:03:00.222Z,1002.07
2019-05-28T10:04:00.238Z,1002.06
2019-05-28T10:05:00.194Z,1002.06
2019-05-28T10:06:15.553Z,1002.06
2019-05-28T10:07:01.200Z,1002.02
2019-05-28T10:08:00.160Z,1002.05
2019-05-28T10:09:00.158Z,1002.05
2019-05-28T10:10:00.172Z,1002.02
2019-05-28T10:11:00.127Z,1002.02
2019-05-28T10:12:00.118Z,1002.03
2019-05-28T10:13:00.104Z,1002.02
2019-05-28T10:14:00.092Z,1002.02
2019-05-28T10:15:00.087Z,1002.06
2019-05-28T10:16:00.105Z,1002.08
2019-05-28T10:17:00.060Z,1002.06
2019-05-28T10:18:00.048Z,1002.06
2019-05-28T10:19:00.038Z,1002.05
2019-05-28T10:20:00.024Z,1002.08
2019-05-28T10:21:16.973Z,1002.11
2019-05-28T10:22:01.030Z,1002.12
2019-05-28T10:22:59.992Z,1002.11
2019-05-28T10:23:59.983Z,1002.10
2019-05-28T10:24:59.970Z,1002.12
2019-05-28T10:25:59.960Z,1002.13
2019-05-28T10:26:59.948Z,1002.12
2019-05-28T10:28:01.721Z,1002.11
2019-05-28T10:28:59.928Z,1002.19
2019-05-28T10:29:59.914Z,1002.17
2019-05-28T10:30:59.906Z,1002.20
2019-05-28T10:31:59.891Z,1002.26
2019-05-28T10:32:59.882Z,1002.25
2019-05-28T10:33:59.903Z,1002.23
2019-05-28T10:35:03.886Z,1002.20
2019-05-28T10:35:59.848Z,1002.21
2019-05-28T10:36:59.837Z,1002.20
2019-05-28T10:37:59.833Z,1002.18
2019-05-28T10:38:59.813Z,1002.22
2019-05-28T10:39:59.832Z,1002.20
2019-05-28T10:40:59.792Z,1002.21
2019-05-28T10:41:59.782Z,1002.23
2019-05-28T10:42:59.771Z,1002.20
2019-05-28T10:43:59.759Z,1002.19
2019-05-28T10:44:59.753Z,1002.20
2019-05-28T10:45:59.815Z,1002.19
2019-05-28T10:46:59.731Z,1002.25
2019-05-28T10:47:59.715Z,1002.23
2019-05-28T10:48:59.703Z,1002.19
2019-05-28T10:49:59.695Z,1002.22
2019-05-28T10:50:59.681Z,1002.19
2019-05-28T10:51:59.700Z,1002.17
2019-05-28T10:52:59.659Z,1002.21
2019-05-28T10:53:59.646Z,1002.17
2019-05-28T10:55:02.648Z,1002.21
2019-05-28T10:55:59.624Z,1002.19
2019-05-28T10:56:59.626Z,1002.22
2019-05-28T10:57:59.617Z,1002.23
2019-05-28T10:58:59.593Z,1002.24
2019-05-28T10:59:59.578Z,1002.22
2019-05-28T11:00:59.577Z,1002.28
2019-05-28T11:01:59.558Z,1002.26
2019-05-28T11:02:59.549Z,1002.28
2019-05-28T11:03:59.572Z,1002.26
2019-05-28T11:04:59.527Z,1002.31
2019-05-28T11:05:59.516Z,1002.25
2019-05-28T11:06:59.503Z,1002.23
2019-05-28T11:07:59.490Z,1002.28
2019-05-28T11:08:59.483Z,1002.28
2019-05-28T11:09:59.501Z,1002.24
2019-05-28T11:10:59.457Z,1002.23
2019-05-28T11:11:59.523Z,1002.24
2019-05-28T11:12:59.439Z,1002.26
2019-05-28T11:13:59.423Z,1002.27
2019-05-28T11:14:59.443Z,1002.24
2019-05-28T11:15:59.438Z,1002.23
2019-05-28T11:16:59.390Z,1002.16
2019-05-28T11:17:59.381Z,1002.14
2019-05-28T11:18:59.370Z,1002.16
2019-05-28T11:19:59.360Z,1002.14
2019-05-28T11:20:59.350Z,1002.13
2019-05-28T11:21:59.342Z,1002.18
2019-05-28T11:22:59.324Z,1002.15
2019-05-28T11:23:59.313Z,1002.16
2019-05-28T11:24:59.309Z,1002.15
2019-05-28T11:25:59.292Z,1002.16
2019-05-28T11:26:59.278Z,1002.13
2019-05-28T11:27:59.291Z,1002.07
2019-05-28T11:28:59.255Z,1002.05
2019-05-28T11:29:59.257Z,1002.11
2019-05-28T11:30:59.234Z,1002.09
2019-05-28T11:31:59.223Z,1002.08
2019-05-28T11:32:59.212Z,1002.08
2019-05-28T11:33:59.230Z,1002.13
2019-05-28T11:34:59.198Z,1002.08
2019-05-28T11:35:59.177Z,1002.11
2019-05-28T11:37:09.085Z,1002.02
2019-05-28T11:38:00.155Z,1002.11
2019-05-28T11:38:59.146Z,1002.08
2019-05-28T11:39:59.169Z,1002.04
2019-05-28T11:40:59.123Z,1002.14
2019-05-28T11:41:59.111Z,1002.04
2019-05-28T11:42:59.099Z,1002.08
2019-05-28T11:43:59.088Z,1002.09
2019-05-28T11:44:59.083Z,1002.10
2019-05-28T11:45:59.075Z,1002.12
2019-05-28T11:46:59.058Z,1002.10
2019-05-28T11:47:59.046Z,1002.15
2019-05-28T11:48:59.045Z,1002.13
2019-05-28T11:49:59.035Z,1002.15
2019-05-28T11:50:59.011Z,1002.19
2019-05-28T11:51:59.043Z,1002.20
2019-05-28T11:52:58.990Z,1002.18
2019-05-28T11:53:58.977Z,1002.20
2019-05-28T11:54:58.971Z,1002.20
2019-05-28T11:55:58.957Z,1002.21
2019-05-28T11:56:58.944Z,1002.18
2019-05-28T11:57:58.954Z,1002.19
2019-05-28T11:58:58.930Z,1002.18
2019-05-28T11:59:58.910Z,1002.13
2019-05-28T12:00:58.908Z,1002.18
2019-05-28T12:01:58.909Z,1002.18
2019-05-28T12:02:58.876Z,1002.16
2019-05-28T12:03:58.896Z,1002.16
2019-05-28T12:04:58.899Z,1002.16